Time;durP1;ratioP1;P1;durP2;ratioP2;P2;SDS_P1;SDS_P2;PMS_P1;PMS_P2;Temp;Humidity;BMP_temperature;BMP_pressure;BME280_temperature;BME280_humidity;BME280_pressure;Samples;Min_cycle;Max_cycle;Signal;HPM_P1;HPM_P2
2021/12/02 17:16:18;;;;;;;31.30;15.73;;;;;;;1.79;82.38;96761.16;5779143;23;20106;-49
2021/12/02 17:18:44;;;;;;;37.63;21.55;;;;;;;1.59;83.27;96773.47;4879055;29;20045;-51
2021/12/02 17:21:09;;;;;;;21.65;11.35;;;;;;;1.61;83.27;96778.53;4870365;29;20450;-50
2021/12/02 17:23:35;;;;;;;23.30;11.43;;;;;;;1.67;82.85;96781.63;4864393;29;20378;-52
2021/12/02 17:26:01;;;;;;;29.20;13.50;;;;;;;1.56;83.61;96791.72;4877353;29;20033;-52
2021/12/02 17:28:26;;;;;;;25.33;12.38;;;;;;;1.62;83.21;96788.81;4890399;29;20036;-51
2021/12/02 17:30:51;;;;;;;24.00;11.27;;;;;;;1.51;84.10;96804.03;4896015;29;20033;-51
2021/12/02 17:33:17;;;;;;;24.40;11.43;;;;;;;1.45;84.10;96804.41;4897650;29;20397;-50
2021/12/02 17:35:43;;;;;;;15.57;7.07;;;;;;;1.47;83.82;96797.38;4889508;29;20032;-49
2021/12/02 17:38:08;;;;;;;15.75;7.47;;;;;;;1.41;84.49;96803.72;4893423;29;20416;-48
2021/12/02 17:40:40;;;;;;;41.63;21.13;;;;;;;1.45;84.01;96803.56;4897611;29;20020;-49
2021/12/02 17:43:08;;;;;;;47.30;28.42;;;;;;;1.44;83.89;96807.88;4897943;29;20120;-51
2021/12/02 17:45:34;;;;;;;18.30;9.02;;;;;;;1.28;83.85;96812.22;4896036;29;20408;-52
2021/12/02 17:47:59;;;;;;;32.33;18.40;;;;;;;1.57;83.19;96820.97;4897441;29;20477;-51
2021/12/02 17:50:29;;;;;;;28.60;14.00;;;;;;;1.17;84.03;96833.44;4891928;29;20028;-51
2021/12/02 17:52:55;;;;;;;26.42;12.57;;;;;;;1.54;83.15;96846.97;4896844;29;20036;-54
2021/12/02 17:55:20;;;;;;;22.30;8.90;;;;;;;1.32;83.95;96840.38;4875818;29;20040;-48
2021/12/02 17:57:46;;;;;;;17.70;7.55;;;;;;;1.38;83.74;96839.25;4893911;29;20025;-49
2021/12/02 18:00:11;;;;;;;18.75;7.25;;;;;;;1.37;83.81;96847.88;4895352;29;20499;-50
2021/12/02 18:02:37;;;;;;;15.00;6.68;;;;;;;1.53;82.70;96866.00;4896199;29;20033;-49
2021/12/02 18:05:04;;;;;;;18.15;9.18;;;;;;;1.54;83.38;96862.50;4883870;29;20032;-52
2021/12/02 18:07:29;;;;;;;18.20;8.52;;;;;;;1.73;82.09;96870.09;4879170;29;20029;-48
2021/12/02 18:09:55;;;;;;;20.90;9.40;;;;;;;1.65;82.19;96876.53;4880057;29;20456;-47
2021/12/02 18:12:20;;;;;;;20.45;8.90;;;;;;;1.33;83.31;96878.22;4879947;29;20033;-52
2021/12/02 18:14:45;;;;;;;26.63;11.40;;;;;;;1.53;82.92;96873.75;4882649;29;20425;-47
2021/12/02 18:17:11;;;;;;;21.83;10.07;;;;;;;1.46;83.28;96875.00;4883815;29;20476;-47
2021/12/02 18:19:36;;;;;;;25.98;10.35;;;;;;;1.24;84.56;96878.72;4883723;29;20035;-50
2021/12/02 18:22:02;;;;;;;25.63;12.15;;;;;;;1.58;83.08;96880.34;4883413;29;20033;-50
2021/12/02 18:24:27;;;;;;;16.15;7.93;;;;;;;1.69;82.25;96884.09;4883483;29;20540;-50
2021/12/02 18:26:54;;;;;;;20.38;8.73;;;;;;;1.77;81.54;96887.09;4899722;29;20037;-50
2021/12/02 18:29:20;;;;;;;21.65;7.90;;;;;;;1.76;81.26;96896.63;4901967;29;20031;-52
2021/12/02 18:31:45;;;;;;;22.33;8.63;;;;;;;1.51;82.07;96901.41;4902207;29;20401;-48
2021/12/02 18:34:12;;;;;;;20.52;8.02;;;;;;;1.48;82.22;96912.78;4901829;29;20025;-51
2021/12/02 18:36:38;;;;;;;20.15;7.55;;;;;;;1.49;81.86;96904.09;4902008;29;20069;-51
2021/12/02 18:39:04;;;;;;;19.77;8.13;;;;;;;1.38;82.14;96906.41;4900228;29;20370;-47
2021/12/02 18:41:30;;;;;;;24.70;9.40;;;;;;;1.48;81.74;96917.94;4901995;29;20024;-47
2021/12/02 18:43:57;;;;;;;39.78;14.30;;;;;;;1.56;81.65;96928.69;4900635;29;20033;-49
2021/12/02 18:46:23;;;;;;;80.60;30.83;;;;;;;1.35;82.84;96937.56;4901689;29;20027;-48
2021/12/02 18:48:50;;;;;;;78.82;30.17;;;;;;;1.55;81.82;96945.13;4900305;29;20392;-46
2021/12/02 18:51:16;;;;;;;21.20;9.52;;;;;;;1.57;81.57;96948.44;4901199;29;20127;-49
2021/12/02 18:53:41;;;;;;;47.33;24.42;;;;;;;1.57;81.65;96958.78;4901234;29;20035;-47
2021/12/02 18:56:07;;;;;;;26.35;11.45;;;;;;;1.43;81.87;96963.84;4900840;29;20111;-49
2021/12/02 18:58:32;;;;;;;40.15;20.13;;;;;;;1.52;81.81;96968.53;4901482;29;20027;-48
2021/12/02 19:01:00;;;;;;;27.17;11.27;;;;;;;1.62;81.04;96972.31;4902773;29;20036;-48
2021/12/02 19:03:25;;;;;;;38.55;19.17;;;;;;;1.65;81.81;96977.31;4901024;29;20057;-48
2021/12/02 19:06:00;;;;;;;62.55;28.60;;;;;;;1.52;81.53;96983.22;4885198;29;20154;-51
2021/12/02 19:27:21;;;;;;;31.83;17.15;;;;;;;1.72;80.59;97020.94;4900126;29;20406;-49
2021/12/02 19:29:46;;;;;;;48.05;23.42;;;;;;;1.56;81.42;97029.47;4900392;29;20021;-51
2021/12/02 19:32:11;;;;;;;24.77;11.32;;;;;;;1.82;79.94;97029.88;4894628;29;20031;-47
2021/12/02 19:34:37;;;;;;;33.65;17.92;;;;;;;1.84;79.69;97033.22;4896784;29;20036;-51
2021/12/02 19:37:02;;;;;;;21.42;11.73;;;;;;;1.84;79.40;97039.22;4887857;29;20044;-47
2021/12/02 19:39:28;;;;;;;32.20;15.57;;;;;;;1.67;80.74;97040.09;4897589;29;20111;-49
2021/12/02 19:41:54;;;;;;;21.95;9.98;;;;;;;1.76;79.77;97041.38;4896279;29;20465;-48
2021/12/02 19:44:20;;;;;;;42.17;16.25;;;;;;;1.57;80.81;97045.81;4897078;29;20528;-51
2021/12/02 19:46:45;;;;;;;43.28;15.52;;;;;;;1.72;79.64;97055.41;4895861;29;20031;-52
2021/12/02 19:49:10;;;;;;;180.85;45.58;;;;;;;1.59;80.94;97055.19;4890386;29;20025;-53
2021/12/02 19:51:36;;;;;;;79.88;27.50;;;;;;;1.57;81.23;97067.31;4899274;29;20024;-53
2021/12/02 19:54:01;;;;;;;143.27;36.47;;;;;;;1.45;81.96;97062.78;4898721;29;20477;-53
2021/12/02 19:56:28;;;;;;;166.63;50.17;;;;;;;1.63;81.63;97069.59;4899441;29;20036;-49
2021/12/02 19:58:53;;;;;;;83.07;36.13;;;;;;;1.78;80.90;97074.91;4885461;29;20036;-53
2021/12/02 20:01:19;;;;;;;75.97;38.33;;;;;;;1.89;80.68;97083.81;4881453;29;20036;-51
2021/12/02 20:03:46;;;;;;;60.22;30.05;;;;;;;1.59;81.76;97086.19;4882076;29;20025;-53
2021/12/02 20:06:12;;;;;;;46.75;24.27;;;;;;;1.31;83.17;97085.91;4879846;29;20025;-49
2021/12/02 20:08:40;;;;;;;47.97;24.48;;;;;;;1.28;83.03;97080.88;4882263;29;20028;-51
2021/12/02 20:11:06;;;;;;;37.00;18.67;;;;;;;1.41;83.13;97081.91;4878577;29;20033;-52
2021/12/02 20:13:32;;;;;;;88.90;40.50;;;;;;;1.46;82.63;97090.28;4877478;29;20032;-53
2021/12/02 20:16:03;;;;;;;57.20;23.13;;;;;;;1.62;81.84;97091.22;4878483;29;20025;-51
2021/12/02 20:18:38;;;;;;;44.35;20.20;;;;;;;1.71;80.96;97100.22;4908422;29;20024;-53
2021/12/02 20:21:03;;;;;;;63.45;32.63;;;;;;;1.76;80.89;97097.44;4898369;29;20024;-50
2021/12/02 20:23:28;;;;;;;52.30;25.83;;;;;;;1.54;81.51;97101.06;4915830;29;20444;-49
2021/12/02 20:25:54;;;;;;;61.13;30.85;;;;;;;1.84;80.67;97113.38;4897481;29;20035;-49
2021/12/02 20:28:20;;;;;;;96.20;39.42;;;;;;;1.42;82.44;97112.03;4891349;29;20457;-55
2021/12/02 20:30:45;;;;;;;102.03;43.00;;;;;;;1.54;82.71;97115.75;4903174;29;20016;-54
2021/12/02 20:33:11;;;;;;;69.75;28.40;;;;;;;1.58;81.54;97107.78;4902745;29;20047;-56
2021/12/02 20:35:36;;;;;;;81.25;30.52;;;;;;;1.56;81.51;97119.94;4902499;29;20028;-54
2021/12/02 20:38:02;;;;;;;70.45;26.90;;;;;;;1.46;82.21;97123.06;4900844;29;20092;-54
2021/12/02 20:40:28;;;;;;;53.15;21.15;;;;;;;1.22;83.38;97107.00;4893067;29;20520;-55
2021/12/02 20:42:53;;;;;;;36.95;18.05;;;;;;;1.11;84.01;97126.44;4904376;29;20036;-55
2021/12/02 20:45:19;;;;;;;29.83;13.77;;;;;;;1.15;84.25;97132.28;4889869;29;20379;-53
2021/12/02 20:47:55;;;;;;;104.70;40.30;;;;;;;1.06;84.47;97130.97;4877508;29;20033;-54
2021/12/02 20:50:22;;;;;;;50.33;19.55;;;;;;;1.17;83.80;97136.47;4901981;29;20036;-51
2021/12/02 20:52:47;;;;;;;31.25;11.00;;;;;;;1.05;84.46;97139.63;4887248;29;20036;-53
2021/12/02 20:55:14;;;;;;;59.75;23.50;;;;;;;1.13;84.18;97137.50;4880152;29;20029;-55
2021/12/02 20:57:40;;;;;;;76.25;25.00;;;;;;;1.29;83.63;97144.53;4880867;29;20025;-55
2021/12/02 21:00:11;;;;;;;36.72;14.27;;;;;;;1.28;83.63;97150.63;4897484;29;20024;-55
2021/12/02 21:02:36;;;;;;;117.93;38.57;;;;;;;1.22;83.40;97150.91;4901864;29;20158;-55
2021/12/02 21:05:02;;;;;;;132.25;43.42;;;;;;;1.45;81.89;97155.81;4898989;29;20021;-57
2021/12/02 21:07:28;;;;;;;49.35;19.40;;;;;;;1.39;82.46;97163.88;4899236;29;20370;-52
2021/12/02 21:09:53;;;;;;;51.17;21.70;;;;;;;1.22;82.42;97169.00;4909745;29;20032;-55
2021/12/02 21:12:19;;;;;;;34.05;15.00;;;;;;;1.37;81.74;97169.09;4916926;29;20035;-53
2021/12/02 21:14:45;;;;;;;42.15;22.73;;;;;;;1.43;81.55;97167.97;4881276;29;20139;-53
2021/12/02 21:17:11;;;;;;;31.48;13.25;;;;;;;1.39;80.85;97172.44;4884988;29;20047;-52
2021/12/02 21:19:37;;;;;;;29.88;12.55;;;;;;;1.18;82.10;97174.31;4917482;29;20024;-51
2021/12/02 21:22:03;;;;;;;33.83;12.95;;;;;;;1.48;80.75;97181.50;4918709;29;20028;-52
2021/12/02 21:24:30;;;;;;;42.78;14.23;;;;;;;1.11;82.02;97191.00;4896370;29;20029;-53
2021/12/02 21:26:57;;;;;;;31.75;11.07;;;;;;;1.21;82.08;97191.41;4883243;29;20042;-54
2021/12/02 21:29:23;;;;;;;28.13;11.10;;;;;;;1.20;81.62;97197.47;4881386;29;20432;-56
2021/12/02 21:31:53;;;;;;;23.05;9.43;;;;;;;1.23;81.11;97199.91;4883712;29;20132;-54
2021/12/02 21:34:26;;;;;;;25.80;9.32;;;;;;;1.22;81.06;97200.00;4912897;29;20085;-55
2021/12/02 21:36:53;;;;;;;22.75;9.50;;;;;;;1.24;81.10;97208.50;4879473;29;20085;-52
2021/12/02 21:39:20;;;;;;;24.77;9.27;;;;;;;1.21;80.38;97216.41;4864042;29;20017;-56
2021/12/02 21:41:46;;;;;;;28.10;11.25;;;;;;;1.26;80.43;97211.84;4879854;29;20029;-54
2021/12/02 21:44:14;;;;;;;23.95;10.15;;;;;;;1.22;80.53;97225.84;4880486;29;20088;-55
2021/12/02 21:46:40;;;;;;;25.83;10.05;;;;;;;1.01;81.29;97222.50;4907610;29;20028;-55
2021/12/02 21:49:06;;;;;;;25.10;9.57;;;;;;;1.21;80.64;97226.75;4918872;29;20480;-56
2021/12/02 21:51:31;;;;;;;25.38;9.07;;;;;;;1.26;80.59;97227.34;4921860;29;20038;-56
2021/12/02 21:53:57;;;;;;;28.88;9.65;;;;;;;1.38;80.14;97225.03;4921581;29;20028;-55
2021/12/02 21:56:24;;;;;;;27.30;11.13;;;;;;;1.27;80.79;97239.34;4906643;29;20111;-55
2021/12/02 21:58:51;;;;;;;29.58;10.55;;;;;;;1.17;80.77;97234.63;4895402;29;20039;-53
2021/12/02 22:01:35;;;;;;;31.80;11.13;;;;;;;1.15;80.98;97235.59;4914717;29;20536;-54
2021/12/02 22:04:02;;;;;;;28.65;10.82;;;;;;;1.13;81.37;97240.81;4921119;29;20456;-54
2021/12/02 22:06:27;;;;;;;32.42;11.70;;;;;;;0.97;82.13;97239.88;4915671;29;20088;-54
2021/12/02 22:08:53;;;;;;;40.10;14.85;;;;;;;0.97;82.08;97247.63;4883693;29;20519;-55
2021/12/02 22:11:18;;;;;;;39.15;15.40;;;;;;;0.82;82.06;97250.88;4883932;29;20033;-54
2021/12/02 22:13:43;;;;;;;40.15;13.63;;;;;;;0.88;81.93;97246.28;4893119;29;20502;-52
2021/12/02 22:16:09;;;;;;;32.08;12.52;;;;;;;0.87;82.41;97243.78;4921164;29;20051;-55
2021/12/02 22:18:35;;;;;;;32.78;13.20;;;;;;;0.87;82.70;97261.84;4892813;29;20519;-55
2021/12/02 22:21:00;;;;;;;39.38;15.93;;;;;;;1.05;82.43;97261.00;4883643;29;20428;-52
2021/12/02 22:23:26;;;;;;;43.15;18.10;;;;;;;1.14;81.90;97264.94;4883219;29;20033;-56
2021/12/02 22:25:51;;;;;;;36.45;13.57;;;;;;;1.11;82.27;97265.91;4884427;29;20040;-52
2021/12/02 22:28:16;;;;;;;32.63;14.07;;;;;;;0.87;83.61;97267.00;4887433;29;20035;-54
2021/12/02 22:30:42;;;;;;;35.67;15.48;;;;;;;1.08;82.69;97262.63;4901879;29;20429;-54
2021/12/02 22:33:07;;;;;;;40.47;18.17;;;;;;;0.59;84.81;97263.06;4901779;29;20028;-52
2021/12/02 22:35:33;;;;;;;36.28;16.00;;;;;;;0.93;84.18;97259.84;4897416;29;20025;-53
2021/12/02 22:37:59;;;;;;;38.80;17.00;;;;;;;0.62;85.43;97272.41;4883006;29;20037;-55
2021/12/02 22:40:24;;;;;;;36.67;15.68;;;;;;;0.76;84.80;97279.53;4882154;29;20021;-55
2021/12/02 22:42:55;;;;;;;35.47;15.52;;;;;;;0.68;84.94;97272.97;4908892;29;20407;-51
2021/12/02 22:45:21;;;;;;;39.53;16.08;;;;;;;0.63;84.79;97274.94;4919641;29;20036;-55
2021/12/02 22:47:46;;;;;;;33.90;13.38;;;;;;;0.67;85.21;97281.63;4887952;29;20045;-53
2021/12/02 22:50:12;;;;;;;45.25;16.42;;;;;;;0.80;84.28;97273.34;4883286;29;20029;-51
2021/12/02 22:52:37;;;;;;;35.25;12.88;;;;;;;0.63;84.83;97267.19;4883188;29;20033;-52
2021/12/02 22:55:05;;;;;;;37.35;14.15;;;;;;;0.72;85.12;97281.41;4883350;29;20501;-55
2021/12/02 22:57:30;;;;;;;34.88;15.98;;;;;;;0.88;84.27;97284.16;4892732;29;20068;-53
2021/12/02 22:59:56;;;;;;;35.83;14.50;;;;;;;1.00;83.50;97291.38;4909578;29;20039;-52
2021/12/02 23:02:21;;;;;;;36.17;15.05;;;;;;;0.96;84.09;97287.25;4919649;29;20031;-56
2021/12/02 23:04:47;;;;;;;31.33;12.13;;;;;;;1.08;83.21;97286.69;4920416;29;20036;-54
2021/12/02 23:07:12;;;;;;;25.65;10.63;;;;;;;0.91;83.36;97290.03;4917926;29;20038;-53
2021/12/02 23:09:37;;;;;;;26.48;12.02;;;;;;;0.88;83.55;97284.16;4887003;29;20044;-54
2021/12/02 23:12:03;;;;;;;27.92;10.70;;;;;;;0.69;84.49;97292.72;4920456;29;20666;-52
2021/12/02 23:14:29;;;;;;;28.23;11.25;;;;;;;0.81;84.09;97287.94;4919725;29;20088;-51
2021/12/02 23:16:54;;;;;;;45.67;13.85;;;;;;;0.61;84.98;97292.22;4919927;29;20043;-54
2021/12/02 23:19:20;;;;;;;47.45;15.13;;;;;;;0.60;85.70;97300.88;4894105;29;20037;-55
2021/12/02 23:21:46;;;;;;;25.05;9.57;;;;;;;0.82;84.17;97287.84;4882451;29;20477;-54
2021/12/02 23:24:13;;;;;;;25.27;9.43;;;;;;;0.67;84.44;97286.78;4902666;29;20118;-52
2021/12/02 23:26:49;;;;;;;29.45;10.68;;;;;;;0.67;84.79;97296.28;4918783;29;20024;-54
2021/12/02 23:29:19;;;;;;;24.63;9.77;;;;;;;0.57;85.05;97288.09;4905839;29;20123;-53
2021/12/02 23:31:44;;;;;;;27.70;10.73;;;;;;;0.70;84.93;97291.81;4893789;29;20032;-56
2021/12/02 23:34:09;;;;;;;27.98;11.77;;;;;;;0.70;84.38;97296.97;4900882;29;20029;-54
2021/12/02 23:36:35;;;;;;;28.65;10.85;;;;;;;0.62;84.82;97293.91;4899947;29;20032;-55
2021/12/02 23:39:02;;;;;;;23.23;9.60;;;;;;;0.51;85.36;97296.09;4901108;29;20032;-55
2021/12/02 23:41:27;;;;;;;27.25;10.32;;;;;;;0.41;85.25;97307.69;4882715;29;20033;-54
2021/12/02 23:43:53;;;;;;;26.23;10.25;;;;;;;0.73;83.89;97305.50;4881593;29;20374;-52
2021/12/02 23:46:18;;;;;;;25.63;10.02;;;;;;;0.68;84.64;97308.28;4881837;29;20191;-56
2021/12/02 23:48:44;;;;;;;26.55;10.57;;;;;;;0.82;83.93;97318.00;4882538;29;20081;-55
2021/12/02 23:51:12;;;;;;;27.67;10.43;;;;;;;0.74;83.98;97322.66;4890805;29;20032;-55
2021/12/02 23:53:37;;;;;;;23.10;9.30;;;;;;;0.78;83.46;97324.19;4900392;29;20029;-55
2021/12/02 23:56:03;;;;;;;30.48;12.23;;;;;;;0.74;84.28;97322.66;4899929;29;20033;-55
2021/12/02 23:58:28;;;;;;;28.90;10.73;;;;;;;1.04;82.43;97331.66;4900754;29;20032;-57
